Time;durP1;ratioP1;P1;durP2;ratioP2;P2;SDS_P1;SDS_P2;PMS_P1;PMS_P2;Temp;Humidity;BMP_temperature;BMP_pressure;BME280_temperature;BME280_humidity;BME280_pressure;Samples;Min_cycle;Max_cycle;Signal;HPM_P1;HPM_P2
2022/08/12 00:44:51;;;;;;;20.38;18.73;;;;;;;22.59;71.09;100891.50;4993803;28;102164;-56
2022/08/12 00:47:20;;;;;;;17.90;16.30;;;;;;;22.58;71.17;100889.88;4996882;28;104029;-56
2022/08/12 00:49:51;;;;;;;19.17;17.52;;;;;;;22.58;71.21;100887.13;4984633;28;102027;-56
2022/08/12 00:52:19;;;;;;;20.95;19.05;;;;;;;22.58;71.15;100883.53;4997209;28;102464;-56
2022/08/12 00:54:49;;;;;;;19.65;17.85;;;;;;;22.58;71.07;100887.13;4999199;28;102177;-55
2022/08/12 00:57:19;;;;;;;19.90;18.02;;;;;;;22.58;71.30;100884.34;4998139;28;103937;-56
2022/08/12 00:59:51;;;;;;;20.38;18.48;;;;;;;22.59;71.16;100885.94;4997624;28;102457;-56
2022/08/12 01:02:22;;;;;;;19.90;18.25;;;;;;;22.59;71.14;100891.50;4997925;28;101995;-56
2022/08/12 01:13:14;;;;;;;19.73;17.92;;;;;;;22.58;71.25;100872.44;4994777;28;102171;-56
2022/08/12 01:15:44;;;;;;;20.42;18.65;;;;;;;22.56;71.25;100864.44;4978808;28;102171;-56
2022/08/12 01:18:11;;;;;;;19.98;18.02;;;;;;;22.58;71.25;100864.13;4983103;28;103900;-58
2022/08/12 01:20:47;;;;;;;19.13;17.40;;;;;;;22.56;71.17;100858.91;4998065;28;102379;-56
2022/08/12 01:23:42;;;;;;;19.48;17.58;;;;;;;22.57;71.38;100862.47;4997070;28;102147;-56
2022/08/12 01:26:15;;;;;;;18.00;16.50;;;;;;;22.57;71.28;100859.72;4989069;28;102417;-56
2022/08/12 01:28:43;;;;;;;19.45;17.50;;;;;;;22.56;71.33;100847.81;4997677;28;104019;-56
2022/08/12 01:31:11;;;;;;;19.52;17.83;;;;;;;22.57;71.10;100848.63;4990020;28;102104;-56
2022/08/12 01:33:43;;;;;;;18.50;16.90;;;;;;;22.56;71.14;100839.50;4994528;28;102561;-56
2022/08/12 01:36:13;;;;;;;19.20;17.55;;;;;;;22.57;71.25;100843.06;4998569;28;102242;-56
2022/08/12 01:38:42;;;;;;;18.60;17.00;;;;;;;22.57;71.11;100846.66;4996308;28;104034;-56
2022/08/12 01:41:12;;;;;;;18.75;17.08;;;;;;;22.56;71.29;100858.91;4997964;28;102150;-56
2022/08/12 01:43:40;;;;;;;18.95;17.25;;;;;;;22.57;71.25;100848.63;4996691;28;102173;-56
2022/08/12 01:46:11;;;;;;;18.55;16.95;;;;;;;22.57;71.14;100856.94;4997702;28;102280;-56
2022/08/12 01:48:59;;;;;;;18.40;16.90;;;;;;;22.56;71.31;100858.91;4995708;28;104143;-56
2022/08/12 01:51:39;;;;;;;18.75;17.05;;;;;;;22.56;71.15;100853.34;4997359;28;102449;-56
2022/08/12 01:54:09;;;;;;;19.15;17.25;;;;;;;22.56;71.37;100853.34;4987435;28;102592;-56
2022/08/12 01:56:47;;;;;;;18.90;17.10;;;;;;;22.55;71.27;100843.44;4995836;28;102486;-57
2022/08/12 02:02:10;;;;;;;18.65;16.92;;;;;;;22.55;71.24;100841.47;4977918;28;102227;-56
2022/08/12 02:14:19;;;;;;;16.77;15.27;;;;;;;22.54;71.20;100828.75;4997552;28;102003;-56
2022/08/12 02:16:57;;;;;;;17.30;15.85;;;;;;;22.55;71.22;100829.56;4994626;28;104543;-56
2022/08/12 02:19:33;;;;;;;;;;;;;;;22.56;71.25;100828.41;4998092;28;102239;-56
2022/08/12 02:22:13;;;;;;;14.80;13.27;;;;;;;22.55;71.26;100843.44;4997230;28;103867;-57
2022/08/12 02:24:41;;;;;;;16.05;14.55;;;;;;;22.55;71.15;100840.66;4996619;28;103533;-56
2022/08/12 02:27:09;;;;;;;18.70;17.00;;;;;;;22.55;71.21;100840.66;4995650;28;102280;-56
2022/08/12 02:29:39;;;;;;;16.30;15.00;;;;;;;22.55;71.24;100846.19;4998420;28;102260;-56
2022/08/12 02:32:07;;;;;;;16.00;14.48;;;;;;;22.55;71.42;100851.75;4996067;28;104014;-56
2022/08/12 02:34:34;;;;;;;17.23;15.77;;;;;;;22.55;71.23;100851.75;4995873;28;102211;-56
2022/08/12 02:37:01;;;;;;;16.42;15.00;;;;;;;22.54;71.28;100844.59;4995963;28;102032;-56
2022/08/12 02:39:30;;;;;;;18.50;16.73;;;;;;;22.55;71.28;100837.88;4998239;28;102223;-56
2022/08/12 02:42:00;;;;;;;17.50;15.88;;;;;;;22.54;71.21;100828.75;4995758;28;103743;-56
2022/08/12 02:44:32;;;;;;;17.65;16.10;;;;;;;22.55;71.32;100824.03;4995755;28;102120;-56
2022/08/12 02:47:04;;;;;;;16.00;14.50;;;;;;;22.55;71.45;100824.03;4977817;28;102310;-56
2022/08/12 02:49:38;;;;;;;17.00;15.40;;;;;;;22.54;71.25;100828.75;4990370;28;102347;-56
2022/08/12 02:52:06;;;;;;;17.95;16.38;;;;;;;22.55;71.47;100818.47;4988828;28;103996;-56
2022/08/12 02:54:34;;;;;;;16.67;15.07;;;;;;;22.54;71.32;100822.41;4982973;28;102357;-57
2022/08/12 02:57:01;;;;;;;15.77;14.35;;;;;;;22.54;71.38;100808.53;4995659;28;102084;-56
2022/08/12 02:59:29;;;;;;;17.05;15.48;;;;;;;22.54;71.29;100805.75;4997845;28;102282;-57
2022/08/12 03:02:02;;;;;;;16.17;14.63;;;;;;;22.54;71.50;100805.75;4995777;28;103953;-56
2022/08/12 03:04:33;;;;;;;16.25;14.82;;;;;;;22.54;71.58;100814.09;4995748;28;102223;-57
2022/08/12 03:07:09;;;;;;;17.05;15.50;;;;;;;22.53;71.35;100810.47;4996261;28;101936;-57
2022/08/12 03:09:46;;;;;;;16.17;14.68;;;;;;;22.53;71.32;100818.81;4998042;28;102166;-56
2022/08/12 03:12:13;;;;;;;16.13;14.63;;;;;;;22.54;71.43;100822.41;4993968;28;103875;-56
2022/08/12 03:14:42;;;;;;;16.73;15.23;;;;;;;22.54;71.26;100822.41;4996382;28;103069;-56
2022/08/12 03:17:16;;;;;;;15.77;14.30;;;;;;;22.53;71.36;100827.13;4995523;28;102592;-57
2022/08/12 03:19:44;;;;;;;16.20;14.70;;;;;;;22.54;71.43;100825.19;4997372;28;102270;-55
2022/08/12 03:22:14;;;;;;;15.88;14.38;;;;;;;22.54;71.24;100822.41;4996154;28;103889;-56
2022/08/12 03:24:42;;;;;;;16.52;14.93;;;;;;;22.54;71.10;100819.63;4995020;28;102159;-56
2022/08/12 03:27:11;;;;;;;15.20;13.87;;;;;;;22.54;71.39;100827.97;4996144;28;102304;-56
2022/08/12 03:29:40;;;;;;;16.42;14.93;;;;;;;22.54;71.46;100830.72;4985030;28;102568;-56
2022/08/12 03:32:07;;;;;;;18.27;16.75;;;;;;;22.53;71.55;100837.41;4991032;28;103843;-56
2022/08/12 03:34:36;;;;;;;17.30;15.60;;;;;;;22.53;71.44;100838.22;4995147;28;102128;-56
2022/08/12 03:37:04;;;;;;;17.25;15.73;;;;;;;22.53;71.58;100837.41;4993484;28;102105;-56
2022/08/12 03:42:26;;;;;;;15.00;13.50;;;;;;;22.53;71.54;100821.56;4999531;28;103988;-56
2022/08/12 04:01:54;;;;;;;12.70;11.52;;;;;;;22.53;71.45;100802.16;4999743;28;102002;-56
2022/08/12 04:04:23;;;;;;;13.13;11.93;;;;;;;22.53;71.48;100798.59;4998464;28;103837;-57
2022/08/12 04:06:51;;;;;;;13.27;12.07;;;;;;;22.53;71.58;100798.59;4999629;28;102489;-58
2022/08/12 04:09:20;;;;;;;14.00;12.80;;;;;;;22.53;71.59;100799.38;4999043;28;102172;-57
2022/08/12 04:14:32;;;;;;;13.52;12.25;;;;;;;22.53;71.58;100777.19;4979017;28;104105;-56
2022/08/12 04:17:00;;;;;;;13.82;12.60;;;;;;;22.53;71.70;100770.84;4982229;28;102456;-57
2022/08/12 04:19:26;;;;;;;14.40;13.15;;;;;;;22.53;71.56;100782.75;4998852;28;101995;-56
2022/08/12 04:21:55;;;;;;;13.45;12.30;;;;;;;22.53;71.60;100781.94;4999190;28;102623;-56
2022/08/12 04:24:24;;;;;;;14.52;13.02;;;;;;;22.53;71.59;100766.09;4991858;28;103847;-56
2022/08/12 04:26:50;;;;;;;13.05;11.73;;;;;;;22.53;71.61;100770.84;4998926;28;102176;-56
2022/08/12 04:29:19;;;;;;;14.40;13.10;;;;;;;22.52;71.62;100770.03;4999020;28;102151;-56
2022/08/12 04:31:46;;;;;;;13.75;12.45;;;;;;;22.53;71.78;100771.66;4997774;28;102122;-56
2022/08/12 04:34:12;;;;;;;179.50;32.00;;;;;;;22.53;71.67;100770.84;4998437;28;104051;-56
2022/08/12 04:36:40;;;;;;;15.52;14.32;;;;;;;22.53;71.74;100770.84;4998700;28;102654;-56
2022/08/12 04:39:11;;;;;;;14.82;13.73;;;;;;;22.54;71.80;100775.25;4996423;28;102133;-56
2022/08/12 04:41:38;;;;;;;16.92;15.63;;;;;;;22.54;71.67;100775.25;4997956;28;102447;-56
2022/08/12 04:44:05;;;;;;;16.23;14.93;;;;;;;22.53;71.65;100765.31;4998272;28;103948;-55
2022/08/12 04:46:32;;;;;;;17.30;16.00;;;;;;;22.53;71.90;100776.41;4987126;28;103818;-56
2022/08/12 04:48:59;;;;;;;16.42;15.15;;;;;;;22.54;71.75;100769.72;4987181;28;102558;-56
2022/08/12 04:51:26;;;;;;;16.23;15.02;;;;;;;22.55;71.70;100774.09;4985962;28;102317;-56
2022/08/12 04:53:53;;;;;;;17.00;15.65;;;;;;;22.53;71.79;100777.19;4997359;28;103227;-56
2022/08/12 04:56:21;;;;;;;18.20;16.80;;;;;;;22.53;71.79;100766.09;4998536;28;102183;-51
2022/08/12 04:58:47;;;;;;;17.20;15.90;;;;;;;22.54;71.82;100761.38;4997866;28;102456;-55
2022/08/12 05:01:14;;;;;;;16.13;14.93;;;;;;;22.54;71.72;100755.84;4997650;28;102503;-55
2022/08/12 05:03:40;;;;;;;16.92;15.63;;;;;;;22.54;71.86;100755.84;4998241;28;103866;-55
2022/08/12 05:06:07;;;;;;;459.40;89.85;;;;;;;22.54;71.76;100762.19;4997635;28;102316;-56
2022/08/12 05:08:35;;;;;;;11.13;10.13;;;;;;;22.54;71.80;100753.06;4997083;28;102417;-56
2022/08/12 05:11:05;;;;;;;10.90;9.87;;;;;;;22.54;71.94;100761.38;4998658;28;102303;-56
2022/08/12 05:13:36;;;;;;;11.07;10.07;;;;;;;22.54;72.05;100758.63;4997481;28;103918;-56
2022/08/12 05:16:04;;;;;;;11.77;10.57;;;;;;;22.54;71.70;100755.84;4997759;28;102454;-57
2022/08/12 05:18:31;;;;;;;12.95;11.57;;;;;;;22.54;71.97;100769.72;4996707;28;102128;-56
2022/08/12 05:20:59;;;;;;;11.65;10.57;;;;;;;22.54;71.82;100778.84;4999067;28;102157;-56
2022/08/12 05:23:26;;;;;;;11.90;10.80;;;;;;;22.54;71.82;100766.94;4990030;28;103913;-57
2022/08/12 05:25:56;;;;;;;11.93;10.82;;;;;;;22.54;71.88;100761.38;4985827;28;102163;-56
2022/08/12 05:28:23;;;;;;;11.65;10.48;;;;;;;22.54;71.84;100766.94;4995207;28;102317;-56
2022/08/12 05:30:51;;;;;;;12.05;10.95;;;;;;;22.55;71.62;100763.00;4998216;28;102215;-56
2022/08/12 05:33:18;;;;;;;15.10;13.60;;;;;;;22.55;71.74;100763.00;4997793;28;103874;-56
2022/08/12 05:35:48;;;;;;;14.43;13.23;;;;;;;22.55;71.91;100763.00;4994215;28;102485;-57
2022/08/12 05:41:04;;;;;;;13.48;12.38;;;;;;;22.55;71.82;100763.00;4989731;28;102622;-57
2022/08/12 05:43:33;;;;;;;14.05;12.75;;;;;;;22.55;71.73;100751.91;4993919;28;104118;-57
2022/08/12 05:46:00;;;;;;;13.57;12.38;;;;;;;22.55;71.87;100754.69;4994155;28;102122;-57
2022/08/12 05:48:29;;;;;;;12.33;11.23;;;;;;;22.55;71.88;100760.22;4991609;28;102704;-56
2022/08/12 05:50:56;;;;;;;12.10;11.00;;;;;;;22.53;71.35;100756.97;4986052;28;102261;-57
2022/08/12 05:53:23;;;;;;;12.45;11.30;;;;;;;22.54;71.89;100753.88;4994634;28;103984;-56
2022/08/12 05:55:51;;;;;;;12.63;11.43;;;;;;;22.55;71.92;100751.91;4995408;28;102116;-57
2022/08/12 05:58:19;;;;;;;12.32;11.18;;;;;;;22.56;71.96;100753.50;4995821;28;102323;-57
2022/08/12 06:00:45;;;;;;;12.93;11.63;;;;;;;22.56;71.87;100759.06;4997660;28;102643;-57
2022/08/12 06:03:16;;;;;;;12.55;11.35;;;;;;;22.57;71.85;100754.31;4996805;28;103942;-57
2022/08/12 06:05:45;;;;;;;13.15;11.95;;;;;;;22.56;71.76;100753.50;4997071;28;102351;-57
2022/08/12 06:08:12;;;;;;;12.63;11.52;;;;;;;22.58;71.66;100751.22;4991743;28;102135;-57
2022/08/12 06:10:39;;;;;;;11.73;10.60;;;;;;;22.60;71.75;100746.09;4982546;28;102275;-57
2022/08/12 06:13:06;;;;;;;12.13;10.93;;;;;;;22.61;71.77;100739.41;4989957;28;103711;-57
2022/08/12 06:15:38;;;;;;;11.68;10.63;;;;;;;22.63;71.53;100741.81;4992637;28;102980;-57
2022/08/12 06:18:06;;;;;;;11.68;10.68;;;;;;;22.63;71.55;100739.84;4991782;28;102581;-57
2022/08/12 06:20:34;;;;;;;12.07;11.03;;;;;;;22.66;71.61;100741.94;4997974;28;102543;-57
2022/08/12 06:23:02;;;;;;;12.70;11.60;;;;;;;22.67;71.66;100726.09;4988964;28;104209;-57
2022/08/12 06:25:29;;;;;;;12.57;11.40;;;;;;;22.68;71.53;100724.91;4979754;28;102014;-57
2022/08/12 06:27:58;;;;;;;12.40;11.30;;;;;;;22.69;71.51;100719.03;4977326;28;104374;-57
2022/08/12 06:30:25;;;;;;;13.20;12.00;;;;;;;22.70;71.09;100720.63;4978510;28;102323;-57
2022/08/12 06:32:52;;;;;;;11.82;10.63;;;;;;;22.70;71.36;100720.63;4989038;28;103865;-57
2022/08/12 06:35:18;;;;;;;12.73;11.55;;;;;;;22.72;71.43;100723.88;4996283;28;102177;-57
2022/08/12 06:37:48;;;;;;;12.63;11.48;;;;;;;22.72;71.22;100721.09;4992704;28;102343;-57
2022/08/12 06:42:46;;;;;;;12.63;11.45;;;;;;;22.73;71.35;100731.03;4997079;28;102164;-57
2022/08/12 06:43:02;;;;;;;12.27;11.15;;;;;;;22.74;71.29;100727.09;4994316;28;103398;-57
2022/08/12 06:45:30;;;;;;;12.80;11.60;;;;;;;22.74;71.27;100721.53;4994821;28;102604;-57
2022/08/12 06:48:00;;;;;;;12.40;11.30;;;;;;;22.76;71.26;100719.22;4996772;28;102407;-57
2022/08/12 06:50:29;;;;;;;13.32;12.02;;;;;;;22.76;71.22;100730.31;4994798;28;102314;-58
2022/08/12 06:52:56;;;;;;;13.30;12.00;;;;;;;22.78;70.71;100722.44;4983098;28;103855;-57
2022/08/12 06:55:24;;;;;;;12.97;11.77;;;;;;;22.78;70.88;100716.88;4996034;28;102185;-57
2022/08/12 06:57:53;;;;;;;12.70;11.50;;;;;;;22.78;70.86;100719.66;4990364;28;102345;-57
2022/08/12 07:00:21;;;;;;;12.98;11.63;;;;;;;22.80;70.71;100713.78;4989671;28;102694;-57
2022/08/12 07:02:48;;;;;;;12.90;11.73;;;;;;;22.82;70.60;100716.19;4991102;28;103423;-57
2022/08/12 07:05:23;;;;;;;12.35;11.25;;;;;;;22.82;70.60;100716.19;4994883;28;104452;-57
2022/08/12 07:08:08;;;;;;;12.88;11.68;;;;;;;22.84;70.44;100703.59;4996537;28;102242;-57
2022/08/12 07:10:40;;;;;;;13.07;11.93;;;;;;;22.85;70.56;100710.72;4997434;28;102715;-57
2022/08/12 07:13:08;;;;;;;14.00;12.73;;;;;;;22.90;70.44;100712.44;4998626;28;103956;-57
2022/08/12 07:15:35;;;;;;;14.25;12.85;;;;;;;22.88;70.37;100710.03;4998439;28;102179;-57
2022/08/12 07:18:16;;;;;;;14.45;13.15;;;;;;;22.89;70.28;100710.84;4988641;28;101867;-58
2022/08/12 07:20:46;;;;;;;14.95;13.45;;;;;;;22.88;70.28;100717.56;4991287;28;102202;-57
2022/08/12 07:23:16;;;;;;;13.77;12.48;;;;;;;22.87;70.38;100724.28;4999279;28;103940;-57
2022/08/12 07:25:43;;;;;;;15.52;13.93;;;;;;;22.87;70.31;100713.19;4999340;28;102527;-57
2022/08/12 07:28:14;;;;;;;14.30;12.90;;;;;;;22.85;70.85;100709.94;4993887;28;102300;-57
2022/08/12 07:30:43;;;;;;;15.07;13.73;;;;;;;22.84;70.54;100705.56;4997783;28;102073;-58
2022/08/12 07:33:11;;;;;;;15.80;13.85;;;;;;;22.87;70.39;100713.19;4998332;28;104202;-58
2022/08/12 07:35:46;;;;;;;15.00;13.65;;;;;;;22.88;70.43;100700.91;4998490;28;102278;-57
2022/08/12 07:38:26;;;;;;;16.17;14.60;;;;;;;22.88;70.49;100714.78;4996967;28;102260;-57
2022/08/12 07:40:55;;;;;;;15.75;14.32;;;;;;;22.87;70.17;100713.19;4980542;28;102151;-57
2022/08/12 07:43:22;;;;;;;15.55;14.15;;;;;;;22.85;70.54;100721.03;4990616;28;103916;-57
2022/08/12 07:45:50;;;;;;;16.70;14.98;;;;;;;22.84;70.61;100714.69;4994816;28;102330;-57
2022/08/12 07:48:16;;;;;;;16.80;15.07;;;;;;;22.84;70.94;100719.44;4991859;28;102154;-57
2022/08/12 07:50:43;;;;;;;16.50;14.85;;;;;;;22.84;70.85;100713.88;4999254;28;102236;-57
2022/08/12 07:53:10;;;;;;;15.70;14.20;;;;;;;22.84;70.63;100722.19;4995364;28;104100;-57
2022/08/12 07:55:38;;;;;;;15.65;14.15;;;;;;;22.83;70.57;100717.78;4988806;28;102127;-56
2022/08/12 07:58:04;;;;;;;16.70;15.00;;;;;;;22.84;70.52;100719.44;4994488;28;102307;-57
2022/08/12 08:00:34;;;;;;;17.20;15.60;;;;;;;22.84;70.33;100713.88;4995599;28;102845;-57
2022/08/12 08:03:01;;;;;;;17.88;15.98;;;;;;;22.85;70.64;100719.06;4996355;28;103959;-57
2022/08/12 08:05:48;;;;;;;16.77;15.25;;;;;;;22.84;70.84;100714.69;4995634;28;102214;-57
2022/08/12 08:08:17;;;;;;;19.23;17.38;;;;;;;22.83;70.85;100724.16;4981452;28;102227;-57
2022/08/12 08:10:49;;;;;;;19.15;17.33;;;;;;;22.82;70.68;100728.09;4986775;28;102024;-57
2022/08/12 08:13:16;;;;;;;19.25;17.55;;;;;;;22.82;71.07;100718.97;4980914;28;104421;-57
2022/08/12 08:15:47;;;;;;;18.35;16.55;;;;;;;22.82;71.13;100732.84;4986974;28;102342;-57
2022/08/12 08:18:15;;;;;;;17.95;16.27;;;;;;;22.81;71.41;100731.22;4985866;28;102283;-57
2022/08/12 08:20:44;;;;;;;18.10;16.50;;;;;;;22.81;71.43;100734.00;4987478;28;102260;-57
2022/08/12 08:23:14;;;;;;;21.13;19.00;;;;;;;22.80;71.31;100735.97;4987640;28;104210;-57
2022/08/12 08:25:40;;;;;;;18.63;17.02;;;;;;;22.79;71.25;100735.19;4980911;28;102199;-57
2022/08/12 08:28:10;;;;;;;19.25;17.50;;;;;;;22.78;71.64;100739.09;4993644;28;102418;-57
2022/08/12 08:30:41;;;;;;;20.05;18.02;;;;;;;22.78;71.40;100733.53;4987699;28;102348;-57
2022/08/12 08:33:10;;;;;;;40.78;20.10;;;;;;;22.78;71.30;100739.09;4983239;28;103818;-57
2022/08/12 08:35:38;;;;;;;406.83;61.72;;;;;;;22.78;71.16;100730.75;4997797;28;102970;-57
2022/08/12 08:38:10;;;;;;;23.92;21.77;;;;;;;22.78;71.45;100727.19;4980948;28;102230;-57
2022/08/12 08:43:25;;;;;;;18.58;16.88;;;;;;;22.77;71.48;100731.94;4981347;28;103924;-57
2022/08/12 08:45:54;;;;;;;17.92;16.17;;;;;;;22.76;71.47;100724.78;4988534;28;101973;-57
2022/08/12 08:48:21;;;;;;;17.08;15.38;;;;;;;22.76;71.47;100727.56;4988148;28;102430;-55
2022/08/12 08:50:48;;;;;;;18.70;16.80;;;;;;;22.76;71.33;100727.56;4986519;28;102573;-56
2022/08/12 08:53:15;;;;;;;19.33;17.55;;;;;;;22.77;71.68;100731.94;4988028;28;103902;-55
2022/08/12 08:55:42;;;;;;;19.38;17.38;;;;;;;22.78;71.64;100729.97;4988296;28;102567;-56
2022/08/12 08:58:09;;;;;;;19.67;17.58;;;;;;;22.77;71.35;100725.59;4995386;28;102352;-59
2022/08/12 09:00:38;;;;;;;20.20;18.23;;;;;;;22.77;71.31;100731.94;4985528;28;102757;-56
2022/08/12 09:03:05;;;;;;;19.83;16.88;;;;;;;22.77;71.33;100733.91;4984252;28;103868;-57
2022/08/12 09:05:33;;;;;;;19.30;17.38;;;;;;;22.77;71.54;100731.94;4993450;28;102525;-57
2022/08/12 09:08:03;;;;;;;20.98;19.08;;;;;;;22.76;71.32;100730.31;4984499;28;102054;-58
2022/08/12 09:10:32;;;;;;;20.92;18.83;;;;;;;22.77;71.21;100731.13;4985786;28;102192;-58
2022/08/12 09:15:47;;;;;;;19.35;17.52;;;;;;;22.77;71.42;100717.25;4994334;28;102183;-58
2022/08/12 09:18:15;;;;;;;19.53;17.73;;;;;;;22.76;71.68;100713.69;4997973;28;102208;-58
2022/08/12 09:20:42;;;;;;;19.65;17.02;;;;;;;22.76;71.50;100707.31;4997272;28;103580;-58
2022/08/12 09:23:11;;;;;;;20.27;18.37;;;;;;;22.76;71.54;100710.91;4996058;28;103914;-58
2022/08/12 09:25:40;;;;;;;19.95;18.15;;;;;;;22.76;71.04;100708.13;4995766;28;102167;-58
2022/08/12 09:28:10;;;;;;;19.17;17.45;;;;;;;22.77;71.52;100709.72;4996389;28;102358;-58
2022/08/12 09:30:38;;;;;;;19.08;17.25;;;;;;;22.76;71.61;100713.69;4999043;28;102492;-58
2022/08/12 09:33:06;;;;;;;21.27;19.37;;;;;;;22.77;71.38;100709.72;4997821;28;103915;-57
2022/08/12 09:35:36;;;;;;;;;;;;;;;22.81;71.14;100697.94;4996706;28;102400;-57
2022/08/12 09:38:02;;;;;;;20.27;18.30;;;;;;;22.81;70.83;100701.50;4997650;28;102146;-57
2022/08/12 09:40:30;;;;;;;19.45;17.60;;;;;;;22.84;70.83;100697.22;4998029;28;102150;-57
2022/08/12 09:45:46;;;;;;;21.25;19.20;;;;;;;22.86;70.76;100697.66;4987643;28;102051;-57
2022/08/12 09:48:16;;;;;;;20.55;18.60;;;;;;;22.89;70.81;100694.19;4993974;28;102044;-58
2022/08/12 09:50:44;;;;;;;22.27;19.98;;;;;;;22.93;70.84;100690.38;4980269;28;102177;-58
2022/08/12 09:53:13;;;;;;;20.25;18.13;;;;;;;22.96;70.46;100688.84;4977886;28;103911;-57
2022/08/12 09:55:42;;;;;;;21.60;19.40;;;;;;;22.95;70.69;100688.06;4989454;28;102499;-58
2022/08/12 09:58:08;;;;;;;22.07;19.87;;;;;;;22.94;70.69;100680.91;4986384;28;102329;-57
2022/08/12 10:00:35;;;;;;;20.63;18.42;;;;;;;22.95;70.73;100687.25;4994883;28;102125;-57
2022/08/12 10:03:03;;;;;;;20.40;18.40;;;;;;;22.94;70.82;100685.66;4976473;28;103820;-57
2022/08/12 10:05:35;;;;;;;22.40;20.08;;;;;;;22.95;70.72;100687.25;4978026;28;102334;-57
2022/08/12 10:08:04;;;;;;;21.52;19.63;;;;;;;22.95;70.73;100687.25;4977021;28;102414;-58
2022/08/12 10:10:32;;;;;;;21.83;19.73;;;;;;;22.92;70.92;100688.75;4990928;28;102269;-58
2022/08/12 10:15:45;;;;;;;21.17;19.17;;;;;;;22.89;71.04;100688.63;4978859;28;102115;-58
2022/08/12 10:18:12;;;;;;;24.42;22.25;;;;;;;22.87;71.04;100677.91;4995395;28;102098;-57
2022/08/12 10:20:40;;;;;;;24.05;21.83;;;;;;;22.87;71.08;100683.44;4996681;28;102247;-58
2022/08/12 10:23:07;;;;;;;23.65;21.35;;;;;;;22.88;70.87;100681.47;4991172;28;103906;-57
2022/08/12 10:31:04;;;;;;;23.30;21.10;;;;;;;22.89;71.09;100674.75;4991790;28;102542;-58
2022/08/12 10:33:33;;;;;;;24.75;22.42;;;;;;;22.88;71.09;100675.94;4996415;28;103907;-58
2022/08/12 10:36:03;;;;;;;24.45;22.15;;;;;;;22.87;70.98;100668.78;4993179;28;102366;-58
2022/08/12 10:38:30;;;;;;;26.63;24.20;;;;;;;22.88;71.12;100667.59;4995401;28;102488;-58
2022/08/12 10:43:42;;;;;;;23.48;21.17;;;;;;;22.87;71.05;100652.13;4995621;28;103914;-58
2022/08/12 10:46:16;;;;;;;23.13;20.77;;;;;;;22.87;71.24;100652.13;4992879;28;102329;-58
2022/08/12 10:48:46;;;;;;;24.27;22.08;;;;;;;22.86;71.21;100656.84;4987567;28;102385;-57
2022/08/12 10:51:16;;;;;;;23.20;21.13;;;;;;;22.88;71.02;100654.53;4988553;28;102760;-58
2022/08/12 10:53:42;;;;;;;23.17;20.98;;;;;;;22.89;70.94;100655.34;4991022;28;104010;-58
2022/08/12 10:56:10;;;;;;;22.58;20.33;;;;;;;22.89;70.93;100655.34;4983749;28;102468;-58
2022/08/12 10:58:37;;;;;;;26.02;23.65;;;;;;;22.88;70.81;100656.50;4996633;28;102177;-58
2022/08/12 11:01:05;;;;;;;24.75;22.48;;;;;;;22.87;71.09;100660.44;4995318;28;102537;-58
2022/08/12 11:03:36;;;;;;;25.05;22.67;;;;;;;22.87;71.18;100652.13;4995094;28;104336;-58
2022/08/12 11:06:04;;;;;;;24.77;22.45;;;;;;;22.86;71.19;100650.50;4996986;28;102227;-58
2022/08/12 11:08:34;;;;;;;24.08;21.80;;;;;;;22.86;71.42;100651.28;4995608;28;102289;-57
2022/08/12 11:11:00;;;;;;;24.05;21.65;;;;;;;22.85;71.42;100654.44;4997583;28;102447;-57
2022/08/12 11:13:28;;;;;;;23.67;21.48;;;;;;;22.86;71.47;100650.50;4995022;28;103944;-58
2022/08/12 11:15:54;;;;;;;24.08;21.70;;;;;;;22.85;71.30;100652.47;4995164;28;102319;-57
2022/08/12 11:18:24;;;;;;;23.55;21.25;;;;;;;22.86;71.23;100645.75;4995712;28;101905;-57
2022/08/12 11:20:52;;;;;;;23.70;21.20;;;;;;;22.88;71.18;100648.19;4995374;28;102439;-58
2022/08/12 11:23:19;;;;;;;22.17;20.17;;;;;;;22.87;71.20;100646.56;4993881;28;103914;-58
2022/08/12 11:25:48;;;;;;;23.85;21.60;;;;;;;22.86;71.12;100633.84;4995056;28;102365;-58
2022/08/12 11:28:15;;;;;;;23.65;21.30;;;;;;;22.85;71.33;100621.94;4982169;28;102221;-58
2022/08/12 11:30:42;;;;;;;24.60;22.20;;;;;;;22.87;71.14;100632.72;4988806;28;102534;-58
2022/08/12 11:33:09;;;;;;;23.52;21.27;;;;;;;22.86;71.17;100629.09;4992245;28;104071;-58
2022/08/12 11:35:35;;;;;;;24.75;22.20;;;;;;;22.86;71.25;100633.84;4996023;28;102197;-58
2022/08/12 11:38:02;;;;;;;24.38;22.08;;;;;;;22.86;70.99;100623.56;4995241;28;101960;-58
2022/08/12 11:40:29;;;;;;;24.70;22.08;;;;;;;22.87;71.41;100616.84;4996434;28;102050;-57
2022/08/12 11:42:59;;;;;;;23.45;21.23;;;;;;;22.87;71.20;100618.84;4989553;28;104112;-58
2022/08/12 11:45:26;;;;;;;23.23;21.13;;;;;;;22.87;70.79;100616.84;4995821;28;102346;-59
2022/08/12 11:47:53;;;;;;;22.25;19.95;;;;;;;22.90;70.88;100618.09;4992281;28;102357;-58
2022/08/12 11:50:20;;;;;;;22.70;20.38;;;;;;;22.89;70.96;100608.97;4977085;28;102365;-57
2022/08/12 11:52:46;;;;;;;23.55;20.65;;;;;;;22.88;70.91;100612.91;4994199;28;103970;-58
2022/08/12 11:55:13;;;;;;;21.98;19.77;;;;;;;22.89;70.92;100611.75;4994767;28;102552;-58
2022/08/12 11:57:47;;;;;;;24.70;22.20;;;;;;;22.87;71.10;100602.19;4996115;28;102261;-58
2022/08/12 12:00:16;;;;;;;21.48;19.17;;;;;;;22.88;70.91;100599.03;4999789;28;102504;-57
2022/08/12 12:02:43;;;;;;;21.25;19.15;;;;;;;22.88;70.79;100604.59;4995934;28;104126;-58
2022/08/12 12:05:09;;;;;;;21.55;19.35;;;;;;;22.88;71.09;100595.47;4979395;28;102266;-58
2022/08/12 12:07:38;;;;;;;22.13;19.80;;;;;;;22.86;71.01;100597.78;4997012;28;102031;-58
2022/08/12 12:10:05;;;;;;;22.45;20.02;;;;;;;22.86;71.12;100595.00;5000045;28;102184;-58
2022/08/12 12:12:32;;;;;;;22.92;19.80;;;;;;;22.88;70.96;100598.22;4995561;28;103922;-58
2022/08/12 12:14:59;;;;;;;21.27;19.13;;;;;;;22.89;71.05;100589.53;4998913;28;102315;-57
2022/08/12 12:17:27;;;;;;;21.45;19.35;;;;;;;22.88;70.86;100598.22;4998008;28;102258;-57
2022/08/12 12:19:53;;;;;;;20.83;18.55;;;;;;;22.89;70.88;100591.50;5000317;28;102530;-58
2022/08/12 12:22:20;;;;;;;19.90;17.83;;;;;;;22.91;70.87;100591.97;4997548;28;103939;-59
2022/08/12 12:24:50;;;;;;;22.05;18.80;;;;;;;22.91;70.77;100586.44;4998683;28;102127;-58
2022/08/12 12:27:18;;;;;;;20.35;18.23;;;;;;;22.91;70.78;100580.88;4997308;28;101996;-58
2022/08/12 12:29:45;;;;;;;22.73;19.27;;;;;;;22.91;70.82;100580.88;5000252;28;102098;-57
2022/08/12 12:32:11;;;;;;;20.42;18.27;;;;;;;22.92;70.84;100579.72;4995758;28;103937;-57
2022/08/12 12:34:39;;;;;;;22.40;20.08;;;;;;;22.89;70.74;100583.19;4998235;28;102533;-58
2022/08/12 12:37:10;;;;;;;20.40;18.33;;;;;;;22.91;70.84;100580.88;4998564;28;102346;-58
2022/08/12 12:39:38;;;;;;;20.20;18.10;;;;;;;22.91;70.87;100578.91;4984073;28;102234;-58
2022/08/12 12:42:05;;;;;;;21.67;19.38;;;;;;;22.92;70.67;100571.41;4994053;28;103864;-57
2022/08/12 12:44:32;;;;;;;20.60;18.60;;;;;;;22.93;70.73;100579.38;4998949;28;102365;-58
2022/08/12 12:46:59;;;;;;;20.98;18.80;;;;;;;22.93;70.78;100570.25;4996650;28;102203;-57
2022/08/12 12:49:25;;;;;;;19.55;17.65;;;;;;;22.91;70.76;100565.03;4985191;28;102172;-58
2022/08/12 12:51:53;;;;;;;21.52;19.13;;;;;;;22.91;71.23;100561.44;4980071;28;103941;-59
2022/08/12 12:54:20;;;;;;;22.70;20.00;;;;;;;22.88;71.00;100568.50;4990746;28;102340;-57
2022/08/12 12:56:49;;;;;;;35.22;21.30;;;;;;;22.88;70.85;100571.28;4997237;28;102256;-58
2022/08/12 12:59:17;;;;;;;23.55;20.02;;;;;;;22.89;71.04;100566.53;4999624;28;102242;-58